createdAt,value
2023-03-10T00:01:21.979Z,3.72
2023-03-10T00:03:48.790Z,3.95
2023-03-10T00:06:17.721Z,4.01
2023-03-10T00:08:44.381Z,4.12
2023-03-10T00:11:11.060Z,4.03
2023-03-10T00:13:38.322Z,4.16
2023-03-10T00:16:06.136Z,4.14
2023-03-10T00:18:32.770Z,3.90
2023-03-10T00:20:59.386Z,4.04
2023-03-10T00:23:26.069Z,4.01
2023-03-10T00:25:57.377Z,4.03
2023-03-10T00:28:25.057Z,3.92
2023-03-10T00:31:03.255Z,3.77
2023-03-10T00:33:32.151Z,3.95
2023-03-10T00:36:04.444Z,4.02
2023-03-10T00:38:31.199Z,4.03
2023-03-10T00:41:01.814Z,4.01
2023-03-10T00:43:28.571Z,3.95
2023-03-10T00:45:55.586Z,3.87
2023-03-10T00:48:22.922Z,3.76
2023-03-10T00:50:49.713Z,3.66
2023-03-10T00:53:16.771Z,3.90
2023-03-10T00:55:43.358Z,3.80
2023-03-10T00:58:10.465Z,3.72
2023-03-10T01:00:37.025Z,3.31
2023-03-10T01:03:03.566Z,3.83
2023-03-10T01:05:30.210Z,3.69
2023-03-10T01:07:56.768Z,3.75
2023-03-10T01:10:23.369Z,3.82
2023-03-10T01:12:49.893Z,3.41
2023-03-10T01:15:16.763Z,3.54
2023-03-10T01:17:43.287Z,3.49
2023-03-10T01:20:14.023Z,3.62
2023-03-10T01:22:41.295Z,3.70
2023-03-10T01:25:09.540Z,3.72
2023-03-10T01:27:37.300Z,3.65
2023-03-10T01:30:04.082Z,3.63
2023-03-10T01:32:30.624Z,3.62
2023-03-10T01:34:57.170Z,3.82
2023-03-10T01:37:24.722Z,3.74
2023-03-10T01:39:51.274Z,3.04
2023-03-10T01:42:17.769Z,3.51
2023-03-10T01:45:07.175Z,3.63
2023-03-10T01:47:33.676Z,3.58
2023-03-10T01:52:46.271Z,3.50
2023-03-10T01:55:16.775Z,3.60
2023-03-10T01:57:50.602Z,3.70
2023-03-10T02:00:18.064Z,3.60
2023-03-10T02:02:56.899Z,3.32
2023-03-10T02:05:24.531Z,3.53
2023-03-10T02:07:52.032Z,3.25
2023-03-10T02:10:21.497Z,3.66
2023-03-10T02:12:47.986Z,3.69
2023-03-10T02:15:14.486Z,3.58
2023-03-10T02:17:41.305Z,3.59
2023-03-10T02:20:52.871Z,3.63
2023-03-10T02:23:28.641Z,3.70
2023-03-10T02:26:05.317Z,3.59
2023-03-10T02:28:31.895Z,3.60
2023-03-10T02:30:58.642Z,3.47
2023-03-10T02:33:31.606Z,3.37
2023-03-10T02:36:12.351Z,3.50
2023-03-10T02:38:38.941Z,3.62
2023-03-10T02:41:19.351Z,3.16
2023-03-10T02:43:47.679Z,3.47
2023-03-10T02:46:14.957Z,3.67
2023-03-10T02:48:41.905Z,3.63
2023-03-10T02:51:13.443Z,3.53
2023-03-10T02:53:39.995Z,3.51
2023-03-10T02:56:06.771Z,3.48
2023-03-10T02:58:33.616Z,3.61
2023-03-10T03:01:00.375Z,3.60
2023-03-10T03:03:27.256Z,3.09
2023-03-10T03:05:53.928Z,3.54
2023-03-10T03:08:21.182Z,3.45
2023-03-10T03:10:47.856Z,3.62
2023-03-10T03:13:14.426Z,3.20
2023-03-10T03:15:41.377Z,3.47
2023-03-10T03:18:08.531Z,3.58
2023-03-10T03:20:37.630Z,3.44
2023-03-10T03:23:04.726Z,3.12
2023-03-10T03:25:35.831Z,3.54
2023-03-10T03:28:03.572Z,3.52
2023-03-10T03:30:30.513Z,2.45
2023-03-10T03:32:57.298Z,3.26
2023-03-10T03:35:28.131Z,3.42
2023-03-10T03:37:55.212Z,3.03
2023-03-10T03:40:22.938Z,3.27
2023-03-10T03:42:51.497Z,3.29
2023-03-10T03:45:21.665Z,3.38
2023-03-10T03:47:48.494Z,3.38
2023-03-10T03:50:18.132Z,2.84
2023-03-10T03:52:45.423Z,3.41
2023-03-10T03:55:14.001Z,3.42
2023-03-10T03:57:40.878Z,2.80
2023-03-10T04:00:09.808Z,3.33
2023-03-10T04:02:36.347Z,3.08
2023-03-10T04:05:03.372Z,2.82
2023-03-10T04:07:29.804Z,3.09
2023-03-10T04:09:56.308Z,3.15
2023-03-10T04:12:22.807Z,3.15
2023-03-10T04:14:49.375Z,2.92
2023-03-10T04:17:16.856Z,2.94
2023-03-10T04:19:45.879Z,2.57
2023-03-10T04:22:14.015Z,2.35
2023-03-10T04:24:40.624Z,2.91
2023-03-10T04:27:09.530Z,2.56
2023-03-10T04:29:39.105Z,2.94
2023-03-10T04:32:06.636Z,2.48
2023-03-10T04:34:33.864Z,2.94
2023-03-10T04:37:00.336Z,2.80
2023-03-10T04:39:26.820Z,2.90
2023-03-10T04:41:53.641Z,2.69
2023-03-10T04:44:30.473Z,2.93
2023-03-10T04:46:57.626Z,2.92
2023-03-10T04:49:24.166Z,2.78
2023-03-10T04:51:50.645Z,2.96
2023-03-10T04:54:17.122Z,2.82
2023-03-10T04:56:43.724Z,2.93
2023-03-10T04:59:10.541Z,2.93
2023-03-10T05:01:37.267Z,2.76
2023-03-10T05:04:05.634Z,2.72
2023-03-10T05:06:32.421Z,2.75
2023-03-10T05:09:00.978Z,2.62
2023-03-10T05:11:27.448Z,2.64
2023-03-10T05:13:54.011Z,2.60
2023-03-10T05:16:22.009Z,2.56
2023-03-10T05:18:48.630Z,2.39
2023-03-10T05:21:15.933Z,2.59
2023-03-10T05:23:42.569Z,2.29
2023-03-10T05:26:11.001Z,2.60
2023-03-10T05:28:37.939Z,2.46
2023-03-10T05:31:16.400Z,2.62
2023-03-10T05:33:43.691Z,2.60
2023-03-10T05:36:12.981Z,2.66
2023-03-10T05:38:39.630Z,2.21
2023-03-10T05:41:08.509Z,2.25
2023-03-10T05:43:35.325Z,2.51
2023-03-10T05:46:01.828Z,2.01
2023-03-10T05:48:28.629Z,2.15
2023-03-10T05:51:05.314Z,2.37
2023-03-10T05:53:33.271Z,2.38
2023-03-10T05:56:00.050Z,2.54
2023-03-10T05:58:27.514Z,2.47
2023-03-10T06:00:54.137Z,2.57
2023-03-10T06:03:23.153Z,2.27
2023-03-10T06:05:50.404Z,2.55
2023-03-10T06:08:17.497Z,2.41
2023-03-10T06:10:44.020Z,2.41
2023-03-10T06:13:10.645Z,2.58
2023-03-10T06:15:37.144Z,2.62
2023-03-10T06:18:03.807Z,2.64
2023-03-10T06:20:30.381Z,2.55
2023-03-10T06:22:56.877Z,2.66
2023-03-10T06:25:23.448Z,2.30
2023-03-10T06:27:49.915Z,2.41
2023-03-10T06:30:16.783Z,2.54
2023-03-10T06:32:43.578Z,2.50
2023-03-10T06:35:14.383Z,2.52
2023-03-10T06:37:41.866Z,2.61
2023-03-10T06:40:12.882Z,2.69
2023-03-10T06:42:43.814Z,2.70
2023-03-10T06:45:15.464Z,2.77
2023-03-10T06:47:43.504Z,2.59
2023-03-10T06:50:11.818Z,2.56
2023-03-10T06:52:38.512Z,2.40
2023-03-10T06:55:05.500Z,2.35
2023-03-10T06:57:32.117Z,2.73
2023-03-10T06:59:58.841Z,2.80
2023-03-10T07:02:25.385Z,2.86
2023-03-10T07:04:51.996Z,2.60
2023-03-10T07:07:18.525Z,2.87
2023-03-10T07:09:46.309Z,2.60
2023-03-10T07:12:12.966Z,2.67
2023-03-10T07:14:39.488Z,3.14
2023-03-10T07:17:06.085Z,3.26
2023-03-10T07:19:33.750Z,3.14
2023-03-10T07:22:00.655Z,2.81
2023-03-10T07:24:27.234Z,3.08
2023-03-10T07:26:53.973Z,2.75
2023-03-10T07:29:20.408Z,3.00
2023-03-10T07:31:47.012Z,3.20
2023-03-10T07:34:13.879Z,3.39
2023-03-10T07:36:40.406Z,2.87
2023-03-10T07:39:07.128Z,3.42
2023-03-10T07:41:33.727Z,3.43
2023-03-10T07:44:00.572Z,3.45
2023-03-10T07:46:27.288Z,3.61
2023-03-10T07:48:55.960Z,3.51
2023-03-10T07:51:22.648Z,3.63
2023-03-10T07:53:49.218Z,3.60
2023-03-10T07:56:15.891Z,3.51
2023-03-10T07:58:42.880Z,3.68
2023-03-10T08:01:15.336Z,3.64
2023-03-10T08:03:41.970Z,3.67
2023-03-10T08:06:08.968Z,3.61
2023-03-10T08:08:35.707Z,3.03
2023-03-10T08:11:05.012Z,3.46
2023-03-10T08:13:32.604Z,3.49
2023-03-10T08:16:01.402Z,3.60
2023-03-10T08:18:29.622Z,3.37
2023-03-10T08:20:57.338Z,3.22
2023-03-10T08:23:24.694Z,3.61
2023-03-10T08:25:51.625Z,3.62
2023-03-10T08:28:18.098Z,3.69
2023-03-10T08:31:02.592Z,3.63
2023-03-10T08:33:30.828Z,3.84
2023-03-10T08:36:30.869Z,3.85
2023-03-10T08:39:00.630Z,4.13
2023-03-10T08:41:35.583Z,3.94
2023-03-10T08:44:03.582Z,4.04
2023-03-10T08:46:32.221Z,3.71
2023-03-10T08:48:59.455Z,3.49
2023-03-10T08:51:28.172Z,3.64
2023-03-10T08:53:56.636Z,3.94
2023-03-10T08:56:23.872Z,3.88
2023-03-10T08:58:50.899Z,3.85
2023-03-10T09:01:17.891Z,3.97
2023-03-10T09:03:45.571Z,3.91
2023-03-10T09:06:13.144Z,3.81
2023-03-10T09:08:41.342Z,4.05
2023-03-10T09:11:09.740Z,4.32
2023-03-10T09:13:36.272Z,4.06
2023-03-10T09:16:03.207Z,4.27
2023-03-10T09:18:29.942Z,4.24
2023-03-10T09:20:56.575Z,4.24
2023-03-10T09:23:23.119Z,3.87
2023-03-10T09:25:49.756Z,4.04
2023-03-10T09:28:18.579Z,4.04
2023-03-10T09:30:45.872Z,4.02
2023-03-10T09:33:18.439Z,3.95
2023-03-10T09:35:52.808Z,3.90
2023-03-10T09:38:29.752Z,3.96
2023-03-10T09:41:20.963Z,3.79
2023-03-10T09:44:02.369Z,3.76
2023-03-10T09:46:37.198Z,3.67
2023-03-10T09:49:03.634Z,3.70
2023-03-10T09:51:30.090Z,3.65
2023-03-10T09:54:30.960Z,3.79
2023-03-10T09:57:00.932Z,3.52
2023-03-10T09:59:37.257Z,3.97
2023-03-10T10:02:16.096Z,3.90
2023-03-10T10:04:43.451Z,4.15
2023-03-10T10:07:21.098Z,4.12
2023-03-10T10:09:57.219Z,3.78
2023-03-10T10:12:26.318Z,3.87
2023-03-10T10:14:58.827Z,3.88
2023-03-10T10:17:37.307Z,3.04
2023-03-10T10:20:23.400Z,3.68
2023-03-10T10:22:52.717Z,3.16
2023-03-10T10:25:24.429Z,3.70
2023-03-10T10:27:56.167Z,3.78
2023-03-10T10:30:28.309Z,3.72
2023-03-10T10:32:57.655Z,3.70
2023-03-10T10:35:27.825Z,3.76
2023-03-10T10:38:03.956Z,3.94
2023-03-10T10:40:34.642Z,4.04
2023-03-10T10:43:05.785Z,4.15
2023-03-10T10:45:37.647Z,3.90
2023-03-10T10:48:04.896Z,3.82
2023-03-10T10:50:36.562Z,4.13
2023-03-10T10:53:17.111Z,4.18
2023-03-10T10:55:45.622Z,4.08
2023-03-10T10:58:31.963Z,4.13
2023-03-10T11:01:05.872Z,4.15
2023-03-10T11:03:38.006Z,4.32
2023-03-10T11:06:27.278Z,4.04
2023-03-10T11:09:06.927Z,4.04
2023-03-10T11:11:38.405Z,3.79
2023-03-10T11:14:17.675Z,4.12
2023-03-10T11:17:14.327Z,4.08
2023-03-10T11:20:25.117Z,4.11
2023-03-10T11:23:09.286Z,4.18
2023-03-10T11:25:42.675Z,4.23
2023-03-10T11:28:36.563Z,4.19
2023-03-10T11:31:24.615Z,4.19
2023-03-10T11:34:05.083Z,4.16
2023-03-10T11:36:55.869Z,3.96
2023-03-10T11:39:29.083Z,4.14
2023-03-10T11:42:03.281Z,4.40
2023-03-10T11:44:40.871Z,4.13
2023-03-10T11:47:43.187Z,4.33
2023-03-10T11:50:27.104Z,4.34
2023-03-10T11:53:01.061Z,4.21
2023-03-10T11:55:27.903Z,4.35
2023-03-10T11:58:00.016Z,4.03
2023-03-10T12:00:42.854Z,3.86
2023-03-10T12:03:14.840Z,4.35
2023-03-10T12:05:50.877Z,4.21
2023-03-10T12:08:20.202Z,4.40
2023-03-10T12:10:47.944Z,4.42
2023-03-10T12:13:33.401Z,4.26
2023-03-10T12:16:02.443Z,4.33
2023-03-10T12:18:29.635Z,4.56
2023-03-10T12:21:19.968Z,4.76
2023-03-10T12:23:49.491Z,4.87
2023-03-10T12:26:36.080Z,5.04
2023-03-10T12:29:21.101Z,4.87
2023-03-10T12:31:52.773Z,5.07
2023-03-10T12:34:23.979Z,4.90
2023-03-10T12:37:15.071Z,4.99
2023-03-10T12:39:42.903Z,4.98
2023-03-10T12:42:31.197Z,5.05
2023-03-10T12:45:24.298Z,4.82
2023-03-10T12:48:11.036Z,4.84
2023-03-10T12:50:56.524Z,4.64
2023-03-10T12:53:36.044Z,4.48
2023-03-10T12:56:12.014Z,4.93
2023-03-10T12:58:49.703Z,4.96
2023-03-10T13:01:21.958Z,4.88
2023-03-10T13:03:54.104Z,4.90
2023-03-10T13:06:30.194Z,4.84
2023-03-10T13:09:10.822Z,4.75
2023-03-10T13:11:57.665Z,5.14
2023-03-10T13:14:33.632Z,4.87
2023-03-10T13:17:01.338Z,5.15
2023-03-10T13:19:30.993Z,5.03
2023-03-10T13:21:58.384Z,5.21
2023-03-10T13:24:33.678Z,5.32
2023-03-10T13:27:31.647Z,5.24
2023-03-10T13:30:13.632Z,5.21
2023-03-10T13:32:41.060Z,5.15
2023-03-10T13:35:31.475Z,5.24
2023-03-10T13:38:12.624Z,5.18
2023-03-10T13:40:45.788Z,5.27
2023-03-10T13:43:32.557Z,5.31
2023-03-10T13:46:00.160Z,5.39
2023-03-10T13:48:29.164Z,5.36
2023-03-10T13:51:32.633Z,5.43
2023-03-10T13:54:35.228Z,5.39
2023-03-10T13:57:25.854Z,5.58
2023-03-10T13:59:54.710Z,5.23
2023-03-10T14:02:28.636Z,5.39
2023-03-10T14:04:55.803Z,5.56
2023-03-10T14:07:38.890Z,5.64
2023-03-10T14:10:05.365Z,5.80
2023-03-10T14:12:44.779Z,5.84
2023-03-10T14:15:21.489Z,5.68
2023-03-10T14:18:03.732Z,5.76
2023-03-10T14:20:40.053Z,5.90
2023-03-10T14:23:18.448Z,5.72
2023-03-10T14:25:46.588Z,5.77
2023-03-10T14:28:17.967Z,5.34
2023-03-10T14:30:45.298Z,5.33
2023-03-10T14:33:13.916Z,5.19
2023-03-10T14:35:41.880Z,4.82
2023-03-10T14:38:08.883Z,5.06
2023-03-10T14:40:41.233Z,5.08
2023-03-10T14:43:16.057Z,4.86
2023-03-10T14:45:44.912Z,4.76
2023-03-10T14:48:20.423Z,4.85
2023-03-10T14:50:47.852Z,4.43
2023-03-10T14:53:17.259Z,4.41
2023-03-10T14:55:47.759Z,4.74
2023-03-10T14:58:18.369Z,4.85
2023-03-10T15:00:44.912Z,4.80
2023-03-10T15:03:12.599Z,4.83
2023-03-10T15:05:48.283Z,4.87
2023-03-10T15:08:16.009Z,4.68
2023-03-10T15:10:44.556Z,4.61
2023-03-10T15:13:15.045Z,4.73
2023-03-10T15:15:44.432Z,4.54
2023-03-10T15:18:13.371Z,4.69
2023-03-10T15:20:40.390Z,4.25
2023-03-10T15:23:09.297Z,4.21
2023-03-10T15:25:35.888Z,4.33
2023-03-10T15:28:03.021Z,4.35
2023-03-10T15:30:35.592Z,4.47
2023-03-10T15:33:03.157Z,4.21
2023-03-10T15:35:30.786Z,4.37
2023-03-10T15:37:58.268Z,4.35
2023-03-10T15:40:28.461Z,4.33
2023-03-10T15:42:57.367Z,4.42
2023-03-10T15:45:26.106Z,4.34
2023-03-10T15:47:53.221Z,4.02
2023-03-10T15:50:21.083Z,4.20
2023-03-10T15:52:49.792Z,4.42
2023-03-10T15:55:16.890Z,4.36
2023-03-10T15:57:44.491Z,3.70
2023-03-10T16:00:12.590Z,4.16
2023-03-10T16:02:39.099Z,4.29
2023-03-10T16:05:06.513Z,4.11
2023-03-10T16:07:35.949Z,3.57
2023-03-10T16:10:02.840Z,4.13
2023-03-10T16:12:29.849Z,4.01
2023-03-10T16:14:57.025Z,3.47
2023-03-10T16:17:24.298Z,3.94
2023-03-10T16:19:51.267Z,3.74
2023-03-10T16:22:17.911Z,3.99
2023-03-10T16:24:44.498Z,3.87
2023-03-10T16:27:11.239Z,3.66
2023-03-10T16:29:40.409Z,4.05
2023-03-10T16:32:12.010Z,3.54
2023-03-10T16:34:38.717Z,3.44
2023-03-10T16:37:08.130Z,3.59
2023-03-10T16:39:36.620Z,3.69
2023-03-10T16:42:03.195Z,3.58
2023-03-10T16:44:29.684Z,3.68
2023-03-10T16:46:56.232Z,3.77
2023-03-10T16:49:22.728Z,2.65
2023-03-10T16:51:49.268Z,3.79
2023-03-10T16:54:19.136Z,3.60
2023-03-10T16:56:50.656Z,3.25
2023-03-10T16:59:19.851Z,3.72
2023-03-10T17:01:47.184Z,3.42
2023-03-10T17:04:14.048Z,3.77
2023-03-10T17:06:41.228Z,3.66
2023-03-10T17:09:09.517Z,3.51
2023-03-10T17:11:41.452Z,3.72
2023-03-10T17:14:11.044Z,3.50
2023-03-10T17:16:38.456Z,3.36
2023-03-10T17:19:08.700Z,3.61
2023-03-10T17:21:38.980Z,3.51
2023-03-10T17:24:07.452Z,3.44
2023-03-10T17:26:37.766Z,3.65
2023-03-10T17:29:04.957Z,3.32
2023-03-10T17:31:32.307Z,3.55
2023-03-10T17:34:01.692Z,3.74
2023-03-10T17:36:29.085Z,3.72
2023-03-10T17:38:57.395Z,3.77
2023-03-10T17:41:25.087Z,3.52
2023-03-10T17:43:55.902Z,3.32
2023-03-10T17:46:28.928Z,3.61
2023-03-10T17:48:56.173Z,2.63
2023-03-10T17:51:25.658Z,2.70
2023-03-10T17:53:53.376Z,2.72
2023-03-10T17:56:22.174Z,3.19
2023-03-10T17:58:49.676Z,3.52
2023-03-10T18:01:22.008Z,3.11
2023-03-10T18:03:48.831Z,3.52
2023-03-10T18:06:21.107Z,3.38
2023-03-10T18:08:48.547Z,3.50
2023-03-10T18:11:15.673Z,3.30
2023-03-10T18:13:42.208Z,3.50
2023-03-10T18:16:16.717Z,3.30
2023-03-10T18:18:43.431Z,2.06
2023-03-10T18:21:11.628Z,3.31
2023-03-10T18:23:38.937Z,3.03
2023-03-10T18:26:09.543Z,2.53
2023-03-10T18:28:36.862Z,2.89
2023-03-10T18:31:07.006Z,3.17
2023-03-10T18:33:33.772Z,3.02
2023-03-10T18:36:07.710Z,2.90
2023-03-10T18:38:34.877Z,2.93
2023-03-10T18:41:04.426Z,3.00
2023-03-10T18:43:32.357Z,3.37
2023-03-10T18:45:59.024Z,2.93
2023-03-10T18:48:28.442Z,3.06
2023-03-10T18:50:56.972Z,2.85
2023-03-10T18:53:25.798Z,2.97
2023-03-10T18:55:53.674Z,2.43
2023-03-10T18:58:23.598Z,3.29
2023-03-10T19:00:50.837Z,3.13
2023-03-10T19:03:18.899Z,2.38
2023-03-10T19:05:46.050Z,2.90
2023-03-10T19:08:13.093Z,2.59
2023-03-10T19:10:40.497Z,2.82
2023-03-10T19:13:08.032Z,2.92
2023-03-10T19:15:37.587Z,3.17
2023-03-10T19:18:04.748Z,3.01
2023-03-10T19:20:31.826Z,3.08
2023-03-10T19:22:58.616Z,2.46
2023-03-10T19:25:25.555Z,2.84
2023-03-10T19:27:52.311Z,2.66
2023-03-10T19:30:20.333Z,3.16
2023-03-10T19:32:48.222Z,2.20
2023-03-10T19:35:16.045Z,2.79
2023-03-10T19:37:46.286Z,3.13
2023-03-10T19:40:17.403Z,3.12
2023-03-10T19:42:44.447Z,2.65
2023-03-10T19:45:14.524Z,2.89
2023-03-10T19:47:41.757Z,2.89
2023-03-10T19:50:11.853Z,2.90
2023-03-10T19:52:43.038Z,2.73
2023-03-10T19:55:14.112Z,2.72
2023-03-10T19:57:41.109Z,2.71
2023-03-10T20:00:13.950Z,2.74
2023-03-10T20:02:47.114Z,2.66
2023-03-10T20:05:15.300Z,2.51
2023-03-10T20:07:44.675Z,2.38
2023-03-10T20:10:11.969Z,2.36
2023-03-10T20:12:38.856Z,2.52
2023-03-10T20:15:06.806Z,2.34
2023-03-10T20:17:33.416Z,2.54
2023-03-10T20:19:59.932Z,2.28
2023-03-10T20:22:26.817Z,2.39
2023-03-10T20:24:53.623Z,1.90
2023-03-10T20:27:20.132Z,2.05
2023-03-10T20:29:46.611Z,2.11
2023-03-10T20:32:13.423Z,1.98
2023-03-10T20:34:41.356Z,1.67
2023-03-10T20:37:08.303Z,2.24
2023-03-10T20:39:34.959Z,2.26
2023-03-10T20:42:01.658Z,2.31
2023-03-10T20:44:28.241Z,2.12
2023-03-10T20:46:57.741Z,1.72
2023-03-10T20:49:24.339Z,2.17
2023-03-10T20:51:51.199Z,1.66
2023-03-10T20:54:21.054Z,1.61
2023-03-10T20:56:47.616Z,1.80
2023-03-10T20:59:14.228Z,1.54
2023-03-10T21:01:42.690Z,1.42
2023-03-10T21:04:09.639Z,1.66
2023-03-10T21:06:37.537Z,1.20
2023-03-10T21:09:05.996Z,1.55
2023-03-10T21:11:35.169Z,1.71
2023-03-10T21:14:04.022Z,1.67
2023-03-10T21:16:30.920Z,4.12
2023-03-10T21:18:57.522Z,5.88
2023-03-10T21:21:24.644Z,7.95
2023-03-10T21:23:51.442Z,6.27
2023-03-10T21:26:21.301Z,5.41
2023-03-10T21:28:48.659Z,5.16
2023-03-10T21:31:15.883Z,3.92
2023-03-10T21:33:45.857Z,4.34
2023-03-10T21:36:22.043Z,4.79
2023-03-10T21:38:50.215Z,5.44
2023-03-10T21:41:19.146Z,5.50
2023-03-10T21:43:45.893Z,4.95
2023-03-10T21:46:12.720Z,3.87
2023-03-10T21:48:41.178Z,4.49
2023-03-10T21:51:09.979Z,3.85
2023-03-10T21:53:36.880Z,3.54
2023-03-10T21:56:04.123Z,4.27
2023-03-10T21:58:30.662Z,3.67
2023-03-10T22:00:57.517Z,3.78
2023-03-10T22:03:24.100Z,4.35
2023-03-10T22:05:50.743Z,4.47
2023-03-10T22:08:17.607Z,2.82
2023-03-10T22:10:46.310Z,3.45
2023-03-10T22:13:13.034Z,3.84
2023-03-10T22:15:40.340Z,3.62
2023-03-10T22:18:07.200Z,4.00
2023-03-10T22:20:34.112Z,4.27
2023-03-10T22:23:01.273Z,4.02
2023-03-10T22:25:28.082Z,3.80
2023-03-10T22:27:56.425Z,4.27
2023-03-10T22:30:25.636Z,3.81
2023-03-10T22:32:52.636Z,4.58
2023-03-10T22:35:19.983Z,3.97
2023-03-10T22:37:46.625Z,2.66
2023-03-10T22:40:16.973Z,3.73
2023-03-10T22:42:45.006Z,4.21
2023-03-10T22:45:18.338Z,4.41
2023-03-10T22:47:45.088Z,4.03
2023-03-10T22:50:18.570Z,4.42
2023-03-10T22:52:45.445Z,3.67
2023-03-10T22:55:17.783Z,4.35
2023-03-10T22:57:44.778Z,3.43
2023-03-10T23:00:19.888Z,4.37
2023-03-10T23:02:48.714Z,4.58
2023-03-10T23:05:16.195Z,3.42
2023-03-10T23:07:44.108Z,3.67
2023-03-10T23:10:17.035Z,4.24
2023-03-10T23:12:44.582Z,3.72
2023-03-10T23:15:24.774Z,3.00
2023-03-10T23:17:53.371Z,3.56
2023-03-10T23:20:20.798Z,4.15
2023-03-10T23:22:47.856Z,4.00
2023-03-10T23:25:24.040Z,4.03
2023-03-10T23:27:51.136Z,4.10
2023-03-10T23:30:18.406Z,3.68
2023-03-10T23:32:51.149Z,3.69
2023-03-10T23:35:24.001Z,3.84
2023-03-10T23:37:51.258Z,3.40
2023-03-10T23:40:20.061Z,3.94
2023-03-10T23:42:47.408Z,2.81
2023-03-10T23:45:17.718Z,3.74
2023-03-10T23:47:45.393Z,2.23
2023-03-10T23:50:20.774Z,3.34
2023-03-10T23:52:47.748Z,3.00
2023-03-10T23:55:18.938Z,3.73
2023-03-10T23:57:45.667Z,4.02
